Time;durP1;ratioP1;P1;durP2;ratioP2;P2;SDS_P1;SDS_P2;PMS_P1;PMS_P2;Temp;Humidity;BMP_temperature;BMP_pressure;BME280_temperature;BME280_humidity;BME280_pressure;Samples;Min_cycle;Max_cycle;Signal;HPM_P1;HPM_P2
2024/03/01 00:02:00;;;;;;;24.45;12.30;;;6.00;99.90;;;;;;5031711;28;20028;-56
2024/03/01 00:04:26;;;;;;;31.98;14.38;;;6.10;99.90;;;;;;5030278;28;20037;-53
2024/03/01 00:06:51;;;;;;;27.33;12.52;;;6.10;99.90;;;;;;5027274;28;20034;-51
2024/03/01 00:09:17;;;;;;;27.70;11.85;;;6.00;99.90;;;;;;5030021;28;20083;-51
2024/03/01 00:11:43;;;;;;;28.60;13.05;;;6.10;99.90;;;;;;5032286;28;20049;-54
2024/03/01 00:14:09;;;;;;;25.40;11.63;;;6.10;99.90;;;;;;5031506;28;20049;-50
2024/03/01 00:16:34;;;;;;;28.80;13.30;;;6.10;99.90;;;;;;5024828;28;20034;-51
2024/03/01 00:19:00;;;;;;;32.60;12.75;;;6.10;99.90;;;;;;5031627;28;20063;-53
2024/03/01 00:21:26;;;;;;;29.35;12.95;;;6.00;99.90;;;;;;5024910;28;20029;-56
2024/03/01 00:23:52;;;;;;;31.55;13.57;;;6.00;99.90;;;;;;5021997;28;20040;-51
2024/03/01 00:26:19;;;;;;;25.48;12.30;;;5.90;99.90;;;;;;5012861;28;20026;-55
2024/03/01 00:28:44;;;;;;;24.45;12.40;;;5.80;99.90;;;;;;5032591;28;20053;-51
2024/03/01 00:31:10;;;;;;;27.00;12.52;;;5.80;99.90;;;;;;5030368;28;20110;-54
2024/03/01 00:33:35;;;;;;;24.77;12.35;;;5.70;99.90;;;;;;5021930;28;20053;-54
2024/03/01 00:36:01;;;;;;;28.63;13.25;;;5.60;99.90;;;;;;5030397;28;21048;-51
2024/03/01 00:38:27;;;;;;;26.83;14.18;;;5.60;99.90;;;;;;5030988;28;20036;-51
2024/03/01 00:40:52;;;;;;;24.92;12.52;;;5.50;99.90;;;;;;5026591;28;20040;-54
2024/03/01 00:43:18;;;;;;;28.35;13.20;;;5.40;99.90;;;;;;5025533;28;20056;-55
2024/03/01 00:45:44;;;;;;;26.67;13.05;;;5.40;99.90;;;;;;5029200;28;20038;-51
2024/03/01 00:48:13;;;;;;;32.47;13.18;;;5.40;99.90;;;;;;5029809;28;20029;-52
2024/03/01 00:50:39;;;;;;;30.38;12.95;;;5.40;99.90;;;;;;5023748;28;20442;-54
2024/03/01 00:53:05;;;;;;;31.65;14.32;;;5.30;99.90;;;;;;5030356;28;20052;-52
2024/03/01 00:55:32;;;;;;;31.75;12.93;;;5.20;99.90;;;;;;5030294;28;20029;-52
2024/03/01 00:57:57;;;;;;;33.28;13.95;;;5.20;99.90;;;;;;5026523;28;20022;-52
2024/03/01 01:00:23;;;;;;;32.72;13.82;;;5.10;99.90;;;;;;5030469;28;20391;-53
2024/03/01 01:02:49;;;;;;;31.27;14.60;;;5.00;99.90;;;;;;5029214;28;20032;-52
2024/03/01 01:05:15;;;;;;;30.77;14.80;;;5.00;99.90;;;;;;5025880;28;20076;-51
2024/03/01 01:07:40;;;;;;;30.73;14.90;;;4.90;99.90;;;;;;5026690;28;20037;-51
2024/03/01 01:10:07;;;;;;;29.38;14.77;;;5.00;99.90;;;;;;5011778;28;20482;-54
2024/03/01 01:12:33;;;;;;;30.30;13.30;;;4.90;99.90;;;;;;5024379;28;20060;-51
2024/03/01 01:14:58;;;;;;;29.90;15.02;;;4.90;99.90;;;;;;5025989;28;20467;-51
2024/03/01 01:17:24;;;;;;;33.72;15.52;;;4.90;99.90;;;;;;5024756;28;20025;-53
2024/03/01 01:19:49;;;;;;;33.53;14.32;;;5.00;99.90;;;;;;5026126;28;20041;-51
2024/03/01 01:22:16;;;;;;;35.30;14.90;;;5.00;99.90;;;;;;5016709;28;20082;-50
2024/03/01 01:24:42;;;;;;;33.13;14.32;;;5.10;99.90;;;;;;5025299;28;20044;-55
2024/03/01 01:27:07;;;;;;;26.00;13.85;;;5.20;99.90;;;;;;5027818;28;20539;-53
2024/03/01 01:29:33;;;;;;;32.50;13.88;;;5.40;99.90;;;;;;5025693;28;20486;-53
2024/03/01 01:31:59;;;;;;;29.67;14.73;;;5.40;99.90;;;;;;5026773;28;20109;-54
2024/03/01 01:34:24;;;;;;;28.48;12.75;;;5.40;99.90;;;;;;5023084;28;20037;-51
2024/03/01 01:36:50;;;;;;;30.70;14.00;;;5.40;99.90;;;;;;5029804;28;20021;-51
2024/03/01 01:39:15;;;;;;;35.25;14.85;;;5.30;99.90;;;;;;5030241;28;20034;-51
2024/03/01 01:41:42;;;;;;;32.25;14.07;;;5.30;99.90;;;;;;5025709;28;20132;-52
2024/03/01 01:44:07;;;;;;;31.98;13.63;;;5.20;99.90;;;;;;5029665;28;20064;-53
2024/03/01 01:46:33;;;;;;;31.13;14.80;;;5.10;99.90;;;;;;5031228;28;20076;-54
2024/03/01 01:48:59;;;;;;;29.60;14.00;;;5.10;99.90;;;;;;5030062;28;20032;-51
2024/03/01 01:51:25;;;;;;;27.98;14.90;;;5.10;99.90;;;;;;5026543;28;20026;-51
2024/03/01 01:53:51;;;;;;;30.58;14.20;;;5.00;99.90;;;;;;5030532;28;20479;-55
2024/03/01 01:56:18;;;;;;;33.33;14.90;;;5.00;99.90;;;;;;5023993;28;20080;-53
2024/03/01 01:58:44;;;;;;;31.60;15.20;;;5.00;99.90;;;;;;5031622;28;20391;-51
2024/03/01 02:01:10;;;;;;;37.17;15.82;;;5.00;99.90;;;;;;5031766;28;20052;-55
2024/03/01 02:03:37;;;;;;;32.78;14.82;;;5.00;99.90;;;;;;5033845;28;20458;-51
2024/03/01 02:06:06;;;;;;;29.15;14.10;;;5.00;99.90;;;;;;5031853;28;20106;-51
2024/03/01 02:08:35;;;;;;;36.65;14.38;;;4.90;99.90;;;;;;5026611;28;20560;-51
2024/03/01 02:11:02;;;;;;;30.00;14.50;;;4.90;99.90;;;;;;5029300;28;20022;-51
2024/03/01 02:13:28;;;;;;;34.22;15.70;;;4.90;99.90;;;;;;5031176;28;20901;-51
2024/03/01 02:15:54;;;;;;;33.30;15.63;;;4.90;99.90;;;;;;5034404;28;20029;-51
2024/03/01 02:18:20;;;;;;;30.75;15.07;;;4.90;99.90;;;;;;5033326;28;20430;-51
2024/03/01 02:21:22;;;;;;;29.58;13.55;;;4.80;99.90;;;;;;5026257;28;20060;-54
2024/03/01 02:23:48;;;;;;;30.75;13.85;;;4.80;99.90;;;;;;4953169;29;20113;-55
2024/03/01 02:26:13;;;;;;;29.77;15.60;;;4.90;99.90;;;;;;5016305;28;20121;-51
2024/03/01 02:28:44;;;;;;;32.10;15.10;;;4.90;99.90;;;;;;5029574;28;20418;-53
2024/03/01 02:31:09;;;;;;;31.00;14.02;;;5.00;99.90;;;;;;5029123;28;20231;-53
2024/03/01 02:33:35;;;;;;;32.22;14.80;;;5.20;99.90;;;;;;5030246;28;20538;-54
2024/03/01 02:36:01;;;;;;;29.73;13.23;;;5.40;99.90;;;;;;5027959;28;20089;-53
2024/03/01 02:38:28;;;;;;;30.13;13.18;;;5.60;99.90;;;;;;5029892;28;20059;-51
2024/03/01 02:40:54;;;;;;;28.38;13.18;;;5.80;99.90;;;;;;5024525;28;20033;-57
2024/03/01 02:43:20;;;;;;;30.20;14.82;;;5.90;99.90;;;;;;5029375;28;20026;-55
2024/03/01 02:45:45;;;;;;;27.92;13.15;;;5.90;99.90;;;;;;5031383;28;20559;-51
2024/03/01 02:48:11;;;;;;;25.77;12.60;;;6.00;99.90;;;;;;5028208;28;20060;-51
2024/03/01 02:50:37;;;;;;;25.85;12.80;;;6.00;99.90;;;;;;5025677;28;20034;-51
2024/03/01 02:53:02;;;;;;;28.15;13.55;;;6.10;99.90;;;;;;5020564;28;20509;-52
2024/03/01 02:55:28;;;;;;;31.42;13.48;;;6.20;99.90;;;;;;5026097;28;20037;-55
2024/03/01 02:57:55;;;;;;;26.85;12.63;;;6.20;99.90;;;;;;5029819;28;20084;-51
2024/03/01 03:00:21;;;;;;;26.50;12.50;;;6.20;99.90;;;;;;5026210;28;20048;-52
2024/03/01 03:02:47;;;;;;;29.02;13.05;;;6.20;99.90;;;;;;5027809;28;20056;-52
2024/03/01 03:05:13;;;;;;;33.13;13.02;;;6.30;99.90;;;;;;5030879;28;20061;-56
2024/03/01 03:07:39;;;;;;;27.98;13.23;;;6.30;99.90;;;;;;5007748;28;20081;-54
2024/03/01 03:10:06;;;;;;;26.98;12.35;;;6.30;99.90;;;;;;5031739;28;20041;-56
2024/03/01 03:12:32;;;;;;;26.83;14.10;;;6.30;99.90;;;;;;5019343;28;20049;-56
2024/03/01 03:15:00;;;;;;;30.88;13.40;;;6.40;99.90;;;;;;5025165;28;20371;-55
2024/03/01 03:17:26;;;;;;;24.00;12.45;;;6.40;99.90;;;;;;5029254;28;20036;-55
2024/03/01 03:19:52;;;;;;;29.42;13.45;;;6.40;99.90;;;;;;5024157;28;20491;-51
2024/03/01 03:22:18;;;;;;;23.30;11.40;;;6.40;99.90;;;;;;5023616;28;20414;-52
2024/03/01 03:24:44;;;;;;;23.25;11.85;;;6.50;99.90;;;;;;5029047;28;20029;-51
2024/03/01 03:27:09;;;;;;;24.45;12.30;;;6.40;99.90;;;;;;5013600;28;20035;-51
2024/03/01 03:29:36;;;;;;;27.00;12.30;;;6.40;99.90;;;;;;5017199;28;20037;-51
2024/03/01 03:32:03;;;;;;;25.98;11.98;;;6.30;99.90;;;;;;5029117;28;20036;-52
2024/03/01 03:34:29;;;;;;;32.38;12.88;;;6.20;99.90;;;;;;5030972;28;20064;-51
2024/03/01 03:36:55;;;;;;;21.42;11.85;;;6.10;99.90;;;;;;5031100;28;20068;-52
2024/03/01 03:39:21;;;;;;;27.70;13.07;;;6.10;99.90;;;;;;5024339;28;20569;-51
2024/03/01 03:41:47;;;;;;;25.02;12.73;;;6.00;99.90;;;;;;5025146;28;20033;-51
2024/03/01 03:44:12;;;;;;;31.80;14.70;;;6.00;99.90;;;;;;4979874;28;1064780;-55
2024/03/01 03:46:38;;;;;;;26.20;12.55;;;6.10;99.90;;;;;;5024280;28;20036;-51
2024/03/01 03:49:07;;;;;;;31.00;12.38;;;6.00;99.90;;;;;;5031191;28;20036;-51
2024/03/01 03:51:33;;;;;;;25.45;13.05;;;6.00;99.90;;;;;;5029448;28;20025;-54
2024/03/01 03:53:59;;;;;;;26.88;12.27;;;6.00;99.90;;;;;;5020455;28;20040;-51
2024/03/01 03:56:25;;;;;;;28.77;13.00;;;6.00;99.90;;;;;;5028591;28;20022;-56
2024/03/01 03:58:51;;;;;;;28.48;12.00;;;6.00;99.90;;;;;;5020887;28;20422;-53
2024/03/01 04:01:19;;;;;;;28.25;13.15;;;6.00;99.90;;;;;;5023110;28;20396;-54
2024/03/01 04:03:45;;;;;;;23.88;12.30;;;6.00;99.90;;;;;;5023566;28;20034;-54
2024/03/01 04:06:11;;;;;;;24.20;12.15;;;6.10;99.90;;;;;;5023530;28;20035;-53
2024/03/01 04:08:40;;;;;;;23.42;11.20;;;6.20;99.90;;;;;;5030643;28;20033;-51
2024/03/01 04:11:06;;;;;;;23.10;11.48;;;6.30;99.90;;;;;;5019960;28;20026;-54
2024/03/01 04:13:32;;;;;;;22.50;11.55;;;6.30;99.90;;;;;;5020015;28;20296;-56
2024/03/01 04:15:58;;;;;;;24.42;11.00;;;6.30;99.90;;;;;;5012728;28;20033;-56
2024/03/01 04:18:27;;;;;;;25.60;12.63;;;6.30;99.90;;;;;;5012475;28;20209;-56
2024/03/01 04:20:57;;;;;;;21.80;12.23;;;6.30;99.90;;;;;;5012256;28;20130;-54
2024/03/01 04:23:24;;;;;;;21.80;10.73;;;6.30;99.90;;;;;;5012527;28;20013;-53
2024/03/01 04:25:51;;;;;;;22.13;10.27;;;6.30;99.90;;;;;;5012720;28;20037;-53
2024/03/01 04:28:26;;;;;;;24.63;11.82;;;6.30;99.90;;;;;;5012393;28;20033;-54
2024/03/01 04:30:52;;;;;;;28.02;12.35;;;6.20;99.90;;;;;;5012648;28;20030;-54
2024/03/01 04:33:18;;;;;;;27.02;12.15;;;6.20;99.90;;;;;;5012256;28;20517;-54
2024/03/01 04:35:43;;;;;;;29.17;12.60;;;6.10;99.90;;;;;;5012436;28;20030;-54
2024/03/01 04:38:10;;;;;;;22.00;11.05;;;6.10;99.90;;;;;;5010968;28;20029;-57
2024/03/01 04:40:37;;;;;;;28.10;11.88;;;6.00;99.90;;;;;;5012047;28;20487;-57
2024/03/01 04:43:07;;;;;;;26.55;12.52;;;5.90;99.90;;;;;;5012445;28;20457;-55
2024/03/01 04:45:33;;;;;;;27.75;12.13;;;5.90;99.90;;;;;;5015882;28;20502;-51
2024/03/01 04:47:59;;;;;;;22.83;11.18;;;5.90;99.90;;;;;;5028337;28;20111;-51
2024/03/01 04:50:25;;;;;;;26.80;12.80;;;5.90;99.90;;;;;;5028536;28;20479;-52
2024/03/01 04:52:51;;;;;;;29.75;13.57;;;6.00;99.90;;;;;;5029072;28;20025;-51
2024/03/01 04:55:17;;;;;;;27.73;11.13;;;6.00;99.90;;;;;;5027993;28;20331;-51
2024/03/01 04:57:42;;;;;;;23.88;11.38;;;5.90;99.90;;;;;;5035004;28;20037;-51
2024/03/01 05:00:15;;;;;;;29.40;12.52;;;5.80;99.90;;;;;;5017848;28;20511;-56
2024/03/01 05:02:43;;;;;;;27.60;11.65;;;5.80;99.90;;;;;;5028036;28;20104;-51
2024/03/01 05:05:14;;;;;;;24.70;11.68;;;5.80;99.90;;;;;;5014156;28;20395;-51
2024/03/01 05:07:40;;;;;;;24.67;11.73;;;5.80;99.90;;;;;;5028759;28;20427;-54
2024/03/01 05:10:10;;;;;;;25.80;11.15;;;5.80;99.90;;;;;;5027003;28;20517;-53
2024/03/01 05:12:39;;;;;;;26.02;11.48;;;5.90;99.90;;;;;;5023323;28;20103;-53
2024/03/01 05:15:07;;;;;;;25.25;11.90;;;5.90;99.90;;;;;;5028041;28;20026;-54
2024/03/01 05:17:34;;;;;;;28.67;13.07;;;6.00;99.90;;;;;;5030137;28;20449;-53
2024/03/01 05:20:00;;;;;;;23.05;11.50;;;6.00;99.90;;;;;;5029476;28;20097;-51
2024/03/01 05:22:26;;;;;;;26.75;10.95;;;6.00;99.90;;;;;;5018684;28;20553;-51
2024/03/01 05:24:52;;;;;;;26.60;11.95;;;6.10;99.90;;;;;;5028967;28;20061;-50
2024/03/01 05:27:18;;;;;;;25.25;11.90;;;6.10;99.90;;;;;;5026390;28;20061;-55
2024/03/01 05:29:43;;;;;;;21.48;10.70;;;6.10;99.90;;;;;;5025268;28;20037;-54
2024/03/01 05:32:09;;;;;;;24.05;11.45;;;6.10;99.90;;;;;;5026313;28;20048;-58
2024/03/01 05:34:35;;;;;;;27.60;11.18;;;6.20;99.90;;;;;;5021545;28;20057;-54
2024/03/01 05:37:02;;;;;;;24.80;10.85;;;6.20;99.90;;;;;;5023614;28;20112;-52
2024/03/01 05:39:28;;;;;;;21.95;10.00;;;6.30;99.90;;;;;;5025358;28;20030;-55
2024/03/01 05:41:53;;;;;;;26.92;11.80;;;6.30;99.90;;;;;;5027630;28;20028;-57
2024/03/01 05:44:19;;;;;;;22.98;9.90;;;6.40;99.90;;;;;;5026772;28;20080;-53
2024/03/01 05:46:44;;;;;;;28.70;10.30;;;6.40;99.90;;;;;;5024650;28;20037;-52
2024/03/01 05:49:10;;;;;;;22.77;10.55;;;6.40;99.90;;;;;;5029489;28;20112;-56
2024/03/01 05:51:37;;;;;;;22.55;10.73;;;6.50;99.90;;;;;;5029911;28;20057;-51
2024/03/01 05:54:03;;;;;;;21.13;9.98;;;6.60;99.90;;;;;;5026004;28;20029;-54
2024/03/01 05:56:29;;;;;;;26.00;10.93;;;6.60;99.90;;;;;;5028111;28;20026;-51
2024/03/01 05:58:55;;;;;;;23.40;11.40;;;6.60;99.90;;;;;;5019815;28;20032;-51
2024/03/01 06:01:22;;;;;;;21.35;10.23;;;6.60;99.90;;;;;;5029425;28;20026;-52
2024/03/01 06:03:47;;;;;;;20.55;9.98;;;6.70;99.90;;;;;;5025062;28;20054;-55
2024/03/01 06:06:15;;;;;;;23.38;10.95;;;6.60;99.90;;;;;;5025658;28;20068;-54
2024/03/01 06:08:41;;;;;;;18.30;8.63;;;6.70;99.90;;;;;;5023871;28;20098;-55
2024/03/01 06:11:10;;;;;;;27.77;10.65;;;6.60;99.90;;;;;;5025502;28;20586;-54
2024/03/01 06:13:36;;;;;;;19.33;9.00;;;6.70;99.90;;;;;;5029528;28;20033;-54
2024/03/01 06:16:02;;;;;;;20.83;10.30;;;6.70;99.90;;;;;;5027791;28;20092;-52
2024/03/01 06:18:28;;;;;;;19.58;8.90;;;6.70;99.90;;;;;;5029132;28;20120;-54
2024/03/01 06:20:53;;;;;;;21.67;9.88;;;6.70;99.90;;;;;;5031514;28;20033;-53
2024/03/01 06:23:19;;;;;;;21.55;10.32;;;6.70;99.90;;;;;;5028716;28;20021;-52
2024/03/01 06:25:44;;;;;;;16.23;8.63;;;6.70;99.90;;;;;;5029430;28;20040;-51
2024/03/01 06:28:10;;;;;;;18.75;9.45;;;6.70;99.90;;;;;;5015992;28;20134;-51
2024/03/01 06:30:36;;;;;;;21.75;9.75;;;6.80;99.90;;;;;;5026035;28;20410;-54
2024/03/01 06:33:01;;;;;;;19.17;10.32;;;6.80;99.90;;;;;;5026784;28;20486;-52
2024/03/01 06:35:27;;;;;;;23.52;8.80;;;6.80;99.90;;;;;;5029364;28;20030;-56
2024/03/01 06:37:52;;;;;;;28.67;10.10;;;6.90;99.90;;;;;;5028280;28;20041;-51
2024/03/01 06:40:18;;;;;;;18.77;9.52;;;6.90;99.90;;;;;;5029168;28;20037;-54
2024/03/01 06:42:43;;;;;;;18.83;8.98;;;6.90;99.90;;;;;;5028231;28;20032;-54
2024/03/01 06:45:10;;;;;;;24.90;10.38;;;6.90;99.90;;;;;;5030502;28;20029;-51
2024/03/01 06:47:36;;;;;;;20.52;8.68;;;6.90;99.90;;;;;;5031862;28;20033;-51
2024/03/01 06:50:01;;;;;;;18.77;9.50;;;6.90;99.90;;;;;;5035016;28;20044;-55
2024/03/01 06:52:27;;;;;;;22.50;9.82;;;7.00;99.90;;;;;;5030882;28;20076;-54
2024/03/01 06:54:53;;;;;;;14.23;7.63;;;7.00;99.90;;;;;;5023585;28;20037;-55
2024/03/01 06:57:18;;;;;;;18.05;9.13;;;7.00;99.90;;;;;;5032387;28;20440;-55
2024/03/01 06:59:45;;;;;;;17.58;8.13;;;7.00;99.90;;;;;;5032938;28;20096;-52
2024/03/01 07:02:11;;;;;;;17.80;8.82;;;7.00;99.90;;;;;;5031506;28;20470;-51
2024/03/01 07:04:36;;;;;;;23.13;9.38;;;7.10;99.90;;;;;;5019552;28;20045;-51
2024/03/01 07:07:02;;;;;;;18.88;9.80;;;7.10;99.90;;;;;;5024403;28;20040;-51
2024/03/01 07:09:28;;;;;;;17.20;8.98;;;7.10;99.90;;;;;;5027343;28;20529;-55
2024/03/01 07:11:53;;;;;;;22.58;8.95;;;7.10;99.90;;;;;;5021511;28;20041;-54
2024/03/01 07:14:19;;;;;;;17.40;8.55;;;7.10;99.90;;;;;;5035013;28;20029;-51
2024/03/01 07:16:44;;;;;;;15.68;8.20;;;7.20;99.90;;;;;;5031905;28;20025;-52
2024/03/01 07:19:10;;;;;;;18.30;8.85;;;7.20;99.90;;;;;;5031288;28;20017;-55
2024/03/01 07:21:36;;;;;;;17.58;8.65;;;7.20;99.90;;;;;;5018097;28;20029;-54
2024/03/01 07:24:02;;;;;;;22.20;10.70;;;7.10;99.90;;;;;;5029518;28;20045;-51
2024/03/01 07:26:29;;;;;;;26.65;12.07;;;7.10;99.90;;;;;;5030265;28;20505;-57
2024/03/01 07:28:54;;;;;;;25.63;11.60;;;7.00;99.90;;;;;;5021667;28;20496;-57
2024/03/01 07:31:20;;;;;;;18.20;10.70;;;7.00;99.90;;;;;;5025865;28;20021;-52
2024/03/01 07:33:45;;;;;;;18.13;9.60;;;7.00;99.90;;;;;;5029268;28;20035;-51
2024/03/01 07:36:12;;;;;;;18.23;9.30;;;7.00;99.90;;;;;;5024246;28;20109;-55
2024/03/01 07:38:41;;;;;;;20.80;9.80;;;7.00;99.90;;;;;;5030362;28;20707;-51
2024/03/01 07:41:06;;;;;;;24.40;10.43;;;7.00;99.90;;;;;;5026025;28;20080;-51
2024/03/01 07:43:32;;;;;;;24.92;10.70;;;7.00;99.90;;;;;;5029218;28;20037;-52
2024/03/01 07:45:57;;;;;;;20.13;10.00;;;7.00;99.90;;;;;;5023356;28;20026;-55
2024/03/01 07:48:25;;;;;;;22.05;11.00;;;7.00;99.90;;;;;;5027204;28;20029;-57
2024/03/01 07:50:50;;;;;;;27.42;9.45;;;7.10;99.90;;;;;;5030631;28;20029;-52
2024/03/01 07:53:16;;;;;;;23.27;10.45;;;7.00;99.90;;;;;;5029118;28;20051;-53
2024/03/01 07:55:41;;;;;;;29.33;12.75;;;7.00;99.90;;;;;;5028285;28;20506;-55
2024/03/01 07:58:07;;;;;;;22.85;11.10;;;7.00;99.90;;;;;;5032870;28;20021;-51
2024/03/01 08:00:34;;;;;;;22.30;9.80;;;7.00;99.90;;;;;;5029396;28;20412;-56
2024/03/01 08:03:09;;;;;;;19.75;10.52;;;7.00;99.90;;;;;;5028703;28;20032;-52
2024/03/01 08:05:38;;;;;;;23.60;10.38;;;7.00;99.90;;;;;;5031186;28;20037;-51
2024/03/01 08:08:04;;;;;;;19.55;10.15;;;7.10;99.90;;;;;;5030070;28;20037;-54
2024/03/01 08:10:34;;;;;;;18.70;9.52;;;7.10;99.90;;;;;;5026317;28;20502;-54
2024/03/01 08:13:04;;;;;;;31.77;14.98;;;7.10;99.90;;;;;;5028622;28;20634;-52
2024/03/01 08:15:35;;;;;;;23.35;12.30;;;7.10;99.90;;;;;;5012472;28;20033;-51
2024/03/01 08:18:15;;;;;;;17.05;8.88;;;7.10;99.90;;;;;;5020673;28;20413;-56
2024/03/01 08:21:05;;;;;;;18.50;9.65;;;7.20;99.90;;;;;;5018795;28;20030;-57
2024/03/01 08:23:37;;;;;;;17.80;7.90;;;7.20;99.90;;;;;;5027476;28;20048;-54
2024/03/01 08:26:05;;;;;;;16.95;8.70;;;7.20;99.90;;;;;;5031413;28;20028;-54
2024/03/01 08:28:31;;;;;;;20.98;10.05;;;7.30;99.90;;;;;;5028185;28;20423;-51
2024/03/01 08:31:03;;;;;;;16.45;8.93;;;7.20;99.90;;;;;;5026470;28;20026;-55
2024/03/01 08:33:30;;;;;;;15.20;8.15;;;7.20;99.90;;;;;;5026332;28;20068;-55
2024/03/01 08:35:56;;;;;;;16.98;8.25;;;7.20;99.90;;;;;;5027785;28;20148;-51
2024/03/01 08:38:41;;;;;;;12.02;7.03;;;7.20;99.90;;;;;;5024983;28;20842;-54
2024/03/01 08:41:08;;;;;;;12.45;6.85;;;7.20;99.90;;;;;;5026029;28;20080;-51
2024/03/01 08:43:37;;;;;;;9.85;5.82;;;7.20;99.90;;;;;;5024686;28;20090;-55
2024/03/01 08:46:04;;;;;;;8.82;4.63;;;7.30;99.90;;;;;;5016891;28;20460;-52
2024/03/01 08:48:34;;;;;;;9.57;4.95;;;7.30;99.90;;;;;;5028753;28;20113;-55
2024/03/01 08:51:00;;;;;;;12.25;5.78;;;7.30;99.90;;;;;;5027457;28;20052;-51
2024/03/01 08:53:49;;;;;;;9.18;4.95;;;7.20;99.90;;;;;;5025504;28;20083;-54
2024/03/01 08:56:20;;;;;;;8.48;4.40;;;7.20;99.90;;;;;;5020361;28;20041;-51
2024/03/01 08:58:46;;;;;;;8.40;4.43;;;7.30;99.90;;;;;;5030330;28;20041;-51
2024/03/01 09:01:47;;;;;;;9.50;4.35;;;7.30;99.90;;;;;;5027071;28;20026;-52
2024/03/01 09:04:31;;;;;;;6.72;4.15;;;7.30;99.90;;;;;;5028911;28;20029;-55
2024/03/01 09:07:07;;;;;;;7.85;3.88;;;7.40;99.90;;;;;;5024400;28;20029;-54
2024/03/01 09:09:33;;;;;;;7.53;3.97;;;7.40;99.90;;;;;;5030165;28;20518;-54
2024/03/01 09:11:59;;;;;;;6.03;3.67;;;7.50;99.90;;;;;;5029734;28;20030;-55
2024/03/01 09:14:30;;;;;;;7.85;3.20;;;7.50;99.90;;;;;;5029190;28;20537;-51
2024/03/01 09:16:58;;;;;;;4.75;3.75;;;7.50;99.90;;;;;;5032109;28;20086;-52
2024/03/01 09:19:25;;;;;;;5.20;3.53;;;7.50;99.90;;;;;;5026340;28;20025;-52
2024/03/01 09:21:51;;;;;;;4.72;3.33;;;7.60;99.90;;;;;;5023197;28;20072;-51
2024/03/01 09:24:18;;;;;;;4.95;3.40;;;7.60;99.90;;;;;;5029644;28;20040;-53
2024/03/01 09:26:46;;;;;;;4.45;2.80;;;7.60;99.90;;;;;;5029990;28;20108;-52
2024/03/01 09:29:34;;;;;;;7.47;3.53;;;7.60;99.90;;;;;;5031087;28;20048;-55
2024/03/01 09:32:01;;;;;;;5.60;3.08;;;7.60;99.90;;;;;;5027346;28;20021;-53
2024/03/01 09:34:39;;;;;;;6.07;3.63;;;7.60;99.90;;;;;;5024931;28;20468;-53
2024/03/01 09:37:08;;;;;;;8.57;4.50;;;7.60;99.90;;;;;;5029128;28;20033;-52
2024/03/01 09:39:34;;;;;;;10.18;3.78;;;7.60;99.90;;;;;;5024956;28;21761;-55
2024/03/01 09:42:41;;;;;;;5.85;3.65;;;7.60;99.90;;;;;;5008522;28;20108;-53
2024/03/01 09:45:58;;;;;;;6.85;3.92;;;7.60;99.90;;;;;;4916451;29;20050;-57
2024/03/01 09:48:42;;;;;;;5.45;3.50;;;7.60;99.90;;;;;;4990479;28;20407;-53
2024/03/01 09:51:32;;;;;;;5.25;3.53;;;7.60;99.90;;;;;;5027259;28;20136;-53
2024/03/01 09:54:08;;;;;;;9.18;4.60;;;7.50;99.90;;;;;;4988799;28;20037;-55
2024/03/01 09:57:05;;;;;;;104.20;32.42;;;7.50;99.90;;;;;;5022485;28;20049;-55
2024/03/01 09:59:48;;;;;;;47.83;19.52;;;7.60;99.90;;;;;;5028492;28;20377;-54
2024/03/01 10:02:41;;;;;;;301.90;91.88;;;7.60;99.90;;;;;;5024816;28;20037;-55
2024/03/01 10:05:13;;;;;;;151.00;49.83;;;7.70;99.90;;;;;;5032721;28;20033;-51
2024/03/01 10:08:02;;;;;;;172.88;63.13;;;7.70;99.90;;;;;;5026908;28;20636;-52
2024/03/01 10:10:38;;;;;;;36.42;15.63;;;7.70;99.90;;;;;;5023384;28;20045;-56
2024/03/01 10:13:18;;;;;;;34.35;16.00;;;8.00;99.90;;;;;;5031890;28;20063;-55
2024/03/01 10:15:53;;;;;;;11.50;7.22;;;8.40;99.90;;;;;;5029537;28;20029;-53
2024/03/01 10:18:43;;;;;;;5.70;3.53;;;8.80;99.90;;;;;;5028871;28;20031;-55
2024/03/01 10:21:09;;;;;;;24.80;14.43;;;9.30;99.90;;;;;;5039791;28;20487;-56
2024/03/01 10:23:50;;;;;;;5.78;4.20;;;9.80;99.90;;;;;;5031830;28;20021;-52
2024/03/01 10:26:27;;;;;;;11.40;8.95;;;10.00;99.90;;;;;;5032916;28;20045;-52
2024/03/01 10:29:20;;;;;;;8.25;5.97;;;10.10;99.90;;;;;;5032184;28;20036;-54
2024/03/01 10:32:04;;;;;;;5.35;3.30;;;10.20;99.90;;;;;;5031773;28;20446;-52
2024/03/01 10:34:58;;;;;;;3.63;2.67;;;10.40;99.90;;;;;;5031363;28;20025;-52
2024/03/01 10:37:47;;;;;;;8.63;4.03;;;10.50;99.90;;;;;;5033882;28;20048;-54
2024/03/01 10:40:17;;;;;;;30.52;9.98;;;10.60;99.90;;;;;;5032634;28;20033;-52
2024/03/01 10:43:09;;;;;;;13.30;5.30;;;10.50;99.90;;;;;;5030668;28;20041;-54
2024/03/01 10:45:47;;;;;;;24.85;7.57;;;10.50;99.90;;;;;;5032740;23;20038;-54
2024/03/01 10:48:14;;;;;;;6.97;4.68;;;10.60;99.90;;;;;;4975022;28;20492;-57
2024/03/01 10:50:47;;;;;;;51.85;12.98;;;10.70;99.90;;;;;;4982741;28;20026;-55
2024/03/01 10:53:33;;;;;;;94.43;20.80;;;10.90;99.90;;;;;;4982714;28;20026;-57
2024/03/01 10:56:04;;;;;;;24.08;8.48;;;10.80;99.90;;;;;;4983521;28;20066;-55
2024/03/01 10:58:59;;;;;;;11.85;4.18;;;11.00;99.90;;;;;;4980897;28;20421;-55
2024/03/01 11:01:33;;;;;;;67.63;21.70;;;11.20;99.90;;;;;;4945290;28;20043;-54
2024/03/01 11:04:16;;;;;;;19.95;7.38;;;11.10;99.90;;;;;;4977700;28;20026;-56
2024/03/01 11:07:10;;;;;;;5.03;2.65;;;11.10;99.90;;;;;;4973456;28;20519;-55
2024/03/01 11:10:15;;;;;;;6.70;3.17;;;11.50;99.90;;;;;;4975301;28;20031;-53
2024/03/01 11:12:50;;;;;;;;;;;11.80;99.90;;;;;;4970549;28;20030;-54
2024/03/01 11:15:18;;;;;;;10.98;4.15;;;11.90;99.90;;;;;;4976682;28;20296;-58
2024/03/01 11:17:47;;;;;;;78.63;25.92;;;11.90;99.90;;;;;;4985285;28;20039;-53
2024/03/01 11:20:47;;;;;;;27.83;11.23;;;11.80;99.90;;;;;;4980896;28;20019;-53
2024/03/01 11:23:26;;;;;;;24.73;9.85;;;11.70;99.90;;;;;;4964179;28;20051;-57
2024/03/01 11:26:02;;;;;;;11.70;6.38;;;11.50;99.90;;;;;;4972109;28;20492;-58
2024/03/01 11:28:29;;;;;;;11.63;3.80;;;11.60;99.90;;;;;;4980469;28;20043;-53
2024/03/01 11:31:05;;;;;;;24.30;6.85;;;11.50;99.90;;;;;;4979386;28;20033;-55
2024/03/01 11:33:36;;;;;;;47.47;14.82;;;11.70;99.90;;;;;;4977203;28;20045;-56
2024/03/01 11:36:34;;;;;;;6.78;2.80;;;11.60;99.90;;;;;;4979582;28;20159;-52
2024/03/01 11:39:38;;;;;;;10.68;3.50;;;11.40;99.90;;;;;;4950033;28;20504;-54
2024/03/01 11:42:22;;;;;;;15.75;5.50;;;11.50;99.90;;;;;;4978557;28;20027;-50
2024/03/01 11:45:05;;;;;;;51.85;14.98;;;11.60;99.90;;;;;;4974161;28;20092;-57
2024/03/01 11:48:00;;;;;;;76.70;20.17;;;11.40;99.90;;;;;;4965815;28;20535;-56
2024/03/01 11:50:30;;;;;;;42.63;12.35;;;11.20;99.90;;;;;;4982698;28;20030;-58
2024/03/01 11:53:32;;;;;;;72.97;25.55;;;11.20;99.90;;;;;;4978264;28;20026;-51
2024/03/01 11:56:22;;;;;;;20.75;8.00;;;11.30;99.90;;;;;;4980659;28;20023;-53
2024/03/01 11:59:10;;;;;;;10.98;4.93;;;11.40;99.90;;;;;;4979203;28;20030;-54
2024/03/01 12:01:51;;;;;;;9.02;3.45;;;11.40;99.90;;;;;;4976845;28;20430;-56
2024/03/01 12:04:58;;;;;;;1.45;0.47;;;11.70;99.90;;;;;;4976175;28;20473;-52
2024/03/01 12:07:46;;;;;;;2.47;1.10;;;11.80;99.90;;;;;;4953201;28;20039;-55
2024/03/01 12:10:17;;;;;;;0.82;0.70;;;11.50;99.90;;;;;;4975525;28;20027;-56
2024/03/01 12:12:49;;;;;;;1.77;0.70;;;11.40;99.90;;;;;;4969198;28;20054;-52
2024/03/01 12:15:30;;;;;;;3.95;1.55;;;11.50;99.90;;;;;;4971618;28;20397;-53
2024/03/01 12:18:06;;;;;;;2.28;0.80;;;11.50;99.90;;;;;;4983051;28;20126;-51
2024/03/01 12:20:36;;;;;;;2.35;1.15;;;11.30;99.90;;;;;;4975159;28;20440;-52
2024/03/01 12:23:15;;;;;;;1.48;0.75;;;11.30;99.90;;;;;;4976368;28;20023;-56
2024/03/01 12:25:40;;;;;;;2.90;1.75;;;11.20;99.90;;;;;;4974961;28;20522;-52
2024/03/01 12:28:23;;;;;;;1.08;0.63;;;11.10;99.90;;;;;;4980839;28;20027;-54
2024/03/01 12:31:20;;;;;;;2.83;1.17;;;11.00;99.90;;;;;;4974773;28;20042;-53
2024/03/01 12:34:22;;;;;;;3.47;1.40;;;10.90;99.90;;;;;;4981494;28;20038;-56
2024/03/01 12:37:07;;;;;;;6.35;2.90;;;11.00;99.90;;;;;;4976994;28;20030;-56
2024/03/01 12:39:33;;;;;;;3.30;1.13;;;10.90;99.90;;;;;;4977674;28;20037;-57
2024/03/01 12:42:37;;;;;;;1.52;0.63;;;10.90;99.90;;;;;;4973951;28;20046;-54
2024/03/01 12:45:40;;;;;;;1.73;1.00;;;10.90;99.90;;;;;;4969002;28;21329;-56
2024/03/01 12:48:17;;;;;;;2.20;1.15;;;10.90;99.90;;;;;;4963113;28;20047;-56
2024/03/01 12:51:08;;;;;;;3.85;1.48;;;10.90;99.90;;;;;;4971990;28;20704;-57
2024/03/01 12:54:04;;;;;;;3.97;1.73;;;11.00;99.90;;;;;;4972883;28;20400;-56
2024/03/01 12:56:39;;;;;;;5.18;2.20;;;11.00;99.90;;;;;;4967903;28;20031;-57
2024/03/01 12:59:19;;;;;;;1.70;1.00;;;11.10;99.90;;;;;;4960151;28;20027;-52
2024/03/01 13:02:02;;;;;;;3.50;1.42;;;11.20;99.90;;;;;;4956054;28;20058;-56